Tiempo atmosférico en la estación meteorológica de Balsareny, Barcelona (352 m.)



Fecha
DESCASC
Temp. máxima en grados centígrados (hora)
DESCASC
Temp. mínima en grados centígrados (hora)
DESCASC
Temp. media en grados centígrados
DESCASC
Racha de viento máxima en m/sg (hora)
DESCASC
Velocidad máxima media en intervalos de 10 minutos(hora)
DESCASC
Precipitaciones diarias en mm
DESCASC
Precipitaciones de 00:00 a 06:00 en mm
DESCASC
Precipitaciones de 06:00 a 12:00 en mm
DESCASC
Precipitaciones de 12:00 a 18:00 en mm
DESCASC
Precipitaciones de 18:00 a 24:00 en mm
DESCASC
22-04-2019 17.2 (12:10) 9.8 (00:20) 13.5 14.17 (14:00) 8.06 (11:20) 0.4 0 0 0 0.4
21-04-2019 17.2 (15:50) 8.6 (01:10) 12.9 14.17 (13:30) 8.06 (13:30) 0 0 0 0 0
20-04-2019 18.5 (13:30) 8.8 (23:40) 13.7 15 (11:20) 8.61 (13:50) 8.8 0 0 0 8.8
19-04-2019 20.1 (15:10) 13.3 (23:59) 16.7 17.22 (16:10) 9.17 (14:50) 0 0 0 0 0
18-04-2019 19.6 (16:10) 6.5 (00:00) 13.1 14.44 (16:20) 9.44 (16:20) 0 0 0 0 0
17-04-2019 19.3 (16:30) 4.4 (00:00) 11.8 8.61 (17:50) 5 (17:50) 0 0 0 0 0
16-04-2019 18.3 (14:00) 3.6 (00:00) 10.9 8.61 (19:30) 5.83 (19:20) 0.4 0.4 0 0 0
15-04-2019 17.4 (15:30) 3.5 (00:00) 10.4 8.06 (17:00) 5 (16:50) 0 0 0 0 0
14-04-2019 21.2 (16:00) 1.6 (00:00) 11.4 9.44 (17:10) 6.39 (18:00) 0 0 0 0 0
13-04-2019 22 (16:20) 3.1 (00:00) 12.5 8.06 (18:50) 5.28 (18:50) 0 0 0 0 0
12-04-2019 20.5 (17:30) 6.1 (00:00) 13.3 8.61 (18:40) 5.83 (18:50) 0 0 0 0 0
11-04-2019 18.5 (14:20) 2.1 (00:00) 10.3 8.33 (16:40) 4.17 (13:40) 0 0 0 0 0
10-04-2019 17.1 (16:50) 0 (00:00) 8.6 10.28 (18:50) 6.94 (19:00) 0.2 0 0 0 0.2
09-04-2019 17.3 (14:40) 5.3 (00:00) 11.3 8.33 (14:50) 5 (15:50) 1.2 0 0 1 0.2
08-04-2019 18.7 (17:40) 2 (00:00) 10.4 8.61 (13:00) 5.56 (13:00) 0 0 0 0 0
07-04-2019 16 (14:10) 0.2 (00:00) 8.1 8.89 (19:00) 5.56 (19:00) 0 0 0 0 0
06-04-2019 13.4 (17:30) 5.1 (00:00) 9.2 11.39 (13:50) 5.83 (13:50) 3.6 3.2 0.4 0 0
05-04-2019 13.4 (15:00) -2.4 (-00:0) 5.5 8.89 (18:40) 6.11 (18:40) 16.6 0 0 0.4 16.2
04-04-2019 15.3 (16:40) -1.3 (-00:0) 7 10 (17:10) 5 (13:30) 0 0 0 0 0
03-04-2019 14 (12:40) 6.6 (00:00) 10.3 6.67 (15:00) 4.17 (14:30) 0.4 0 0 0.2 0.2
02-04-2019 20.7 (17:10) 3.2 (00:00) 12 11.39 (16:00) 5.28 (21:30) 0 0 0 0 0
01-04-2019 20.5 (15:30) 5.5 (00:00) 13 10 (17:50) 6.67 (18:00) 0 0 0 0 0
31-03-2019 18.5 (17:10) -0.2 (00:00) 9.1 7.22 (19:10) 5 (19:20) 0 0 0 0 0
30-03-2019 17.7 (15:00) -2.1 (-00:0) 7.8 8.89 (17:10) 6.11 (17:40) 0 0 0 0 0
29-03-2019 18 (13:20) 0.8 (00:00) 9.4 8.06 (13:30) 5 (13:30) 0 0 0 0 0
28-03-2019 19.2 (16:10) -1.3 (-00:0) 9 9.72 (16:50) 6.67 (16:50) 0 0 0 0 0
27-03-2019 19.9 (16:30) -2.7 (-00:0) 8.6 9.72 (17:30) 7.78 (17:30) 0 0 0 0 0

Gráficas

Temp. máximas Temp. mínimas Temp. medias Precipitaciones Rachas de viento máximas Velocidades máximas media en intervalos de 10 minutos

Datos horarios

Fecha y hora oficial Temperatura (ºC) Velocidad del viento (km/h) Dirección del viento Racha (km/h) Dirección de racha Precipitación (mm) Presión (hPa) Tendencia (hPa) Humedad (%)
2019-04-25 23:00:00 8.5 3 Norte 9 Norte 0 -- -- 98
2019-04-25 22:00:00 9.9 2 Sur 8 Sudoeste 0 -- -- 97
2019-04-25 21:00:00 10.5 3 Sudoeste 9 Sudoeste 0 -- -- 93
2019-04-25 20:00:00 10.8 3 Noroeste 33 Sudoeste 2.8 -- -- 91
2019-04-25 19:00:00 12.4 4 Sur 18 Sudeste 0.4 -- -- 88
2019-04-25 18:00:00 12.5 5 Sudeste 12 Sudeste 1 -- -- 90
2019-04-25 17:00:00 13.5 4 Nordeste 10 Nordeste 1.4 -- -- 86
2019-04-25 16:00:00 14.7 5 Nordeste 12 Norte 0 -- -- 72
2019-04-25 15:00:00 13.5 4 Este 14 Sudeste 0.2 -- -- 79
2019-04-25 14:00:00 11 5 Sudeste 12 Nordeste 2.2 -- -- 90
2019-04-25 13:00:00 11.1 5 Nordeste 15 Noroeste 0.8 -- -- 90
2019-04-25 12:00:00 11.9 6 Noroeste 23 Oeste 0.2 -- -- 77
2019-04-25 11:00:00 12.2 5 Sur 30 Sudoeste 0.8 -- -- 88
2019-04-25 10:00:00 12.1 11 Noroeste 27 Sudoeste 2 -- -- 89
2019-04-25 09:00:00 12.6 13 Sur 26 Sur 0 -- -- 90
2019-04-25 08:00:00 12.4 18 Sur 31 Sur 0.4 -- -- 90
2019-04-25 07:00:00 12.2 16 Sur 30 Sudoeste 0 -- -- 91
2019-04-25 06:00:00 12 11 Sur 30 Sur 0 -- -- 92
2019-04-25 05:00:00 12 20 Sur 31 Sur 0.4 -- -- 93
2019-04-25 04:00:00 12 15 Sur 29 Sur 0.4 -- -- 92
2019-04-25 03:00:00 12.3 14 Sur 23 Sur 0 -- -- 85
2019-04-25 02:00:00 12.2 11 Sur 23 Sur 0 -- -- 80
2019-04-25 01:00:00 11.8 14 Sur 23 Sur 0 -- -- 81
2019-04-25 00:00:00 11.6 8 Sur 18 Sur 0 -- -- 78
2019-04-24 23:00:00 12.1 11 Sur 26 Sudoeste 0 -- -- 70
2019-04-24 22:00:00 12.6 10 Sur 21 Sur 0 -- -- 65
2019-04-24 21:00:00 13.1 10 Sur 28 Sur 0 -- -- 59
2019-04-24 20:00:00 13.9 20 Sur 31 Sur 0 -- -- 54
2019-04-24 19:00:00 15.3 22 Sur 37 Sudoeste 0 -- -- 49
2019-04-24 18:00:00 15.7 26 Sur 41 Sur 0 -- -- 51
2019-04-24 17:00:00 16.2 15 Sudoeste 35 Sudoeste 0 -- -- 51
2019-04-24 16:00:00 16.3 10 Sudoeste 28 Sudoeste 0 -- -- 49
2019-04-24 15:00:00 15.8 19 Sudoeste 31 Sudoeste 0 -- -- 46
2019-04-24 14:00:00 15.7 10 Oeste 26 Sudoeste 0 -- -- 47
2019-04-24 13:00:00 14.8 10 Sudoeste 30 Sudoeste 0 -- -- 51
2019-04-24 12:00:00 13.4 13 Oeste 27 Noroeste 0 -- -- 57
2019-04-24 11:00:00 12.6 14 Sudoeste 30 Sudoeste 0 -- -- 60
2019-04-24 10:00:00 11.1 14 Sudoeste 22 Sudoeste 0 -- -- 69
2019-04-24 09:00:00 10.4 10 Sudoeste 18 Sudoeste 0 -- -- 78
2019-04-24 08:00:00 9.1 0 Calma 4 Sudeste 0 -- -- 94
2019-04-24 07:00:00 8.8 2 Sur 6 Sudoeste 0 -- -- 91
2019-04-24 06:00:00 8.8 0 Calma 3 Este 0 -- -- 91
2019-04-24 05:00:00 9.7 2 Norte 15 Oeste 0.6 -- -- 86
2019-04-24 04:00:00 11.9 9 Sudoeste 24 Sur 0 -- -- 75
2019-04-24 03:00:00 12 13 Sur 21 Sudeste 0 -- -- 84
2019-04-24 02:00:00 11.7 8 Sur 14 Sur 0 -- -- 87
2019-04-24 01:00:00 11.9 3 Norte 8 Norte 0 -- -- 86
2019-04-24 00:00:00 13.1 5 Sur 21 Sur 0 -- -- 81
2019-04-23 23:00:00 13.6 8 Sur 20 Sur 0 -- -- 77
2019-04-23 22:00:00 14.2 3 Sudeste 7 Sudeste 0 -- -- 73
2019-04-23 21:00:00 14.9 9 Sur 33 Sur 0 -- -- 72
2019-04-23 20:00:00 16.4 18 Sur 28 Sur 0 -- -- 69
2019-04-23 19:00:00 15.6 7 Noroeste 13 Oeste 0 -- -- 75
2019-04-23 18:00:00 14.4 5 Norte 19 Nordeste 0.4 -- -- 81
2019-04-23 17:00:00 15.3 9 Norte 32 Sur 0 -- -- 71
2019-04-23 16:00:00 19.1 18 Sur 31 Sur 0 -- -- 59
2019-04-23 15:00:00 17.5 11 Sur 24 Sur 0 -- -- 69
2019-04-23 14:00:00 17 15 Sur 28 Sur 0 -- -- 70
2019-04-23 13:00:00 16.5 8 Sur 17 Sur 0 -- -- 72
2019-04-23 12:00:00 15.3 9 Sur 17 Sur 0 -- -- 82
2019-04-23 11:00:00 13.7 8 Sur 12 Sur 0 -- -- 89
2019-04-23 10:00:00 12.8 3 Norte 6 Noroeste 0 -- -- 90
2019-04-23 09:00:00 11.2 0 Calma 5 Norte 0.6 -- -- 95
2019-04-23 08:00:00 10.8 3 Oeste 8 Este 0 -- -- 94
2019-04-23 07:00:00 10.8 3 Este 4 Sudeste 0.2 -- -- 92
2019-04-23 06:00:00 11.1 2 Norte 8 Noroeste 0 -- -- 89
2019-04-23 05:00:00 11.2 2 Noroeste 5 Sudoeste 0 -- -- 90
2019-04-23 04:00:00 11.3 3 Noroeste 6 Este 0 -- -- 89
2019-04-23 03:00:00 11.5 0 Calma 7 Noroeste 0 -- -- 87
2019-04-23 02:00:00 12.2 7 Norte 13 Noroeste 0 -- -- 81
2019-04-23 01:00:00 11.9 7 Noroeste 9 Norte 0 -- -- 79
2019-04-23 00:00:00 11.5 7 Norte 10 Noroeste 0 -- -- 85
2019-04-22 23:00:00 11.8 7 Noroeste 13 Noroeste 0 -- -- 83
2019-04-22 22:00:00 12.1 8 Nordeste 24 Este 0 -- -- 76
2019-04-22 21:00:00 12.6 4 Nordeste 24 Nordeste 0.2 -- -- 74
2019-04-22 20:00:00 13.6 15 Nordeste 32 Nordeste 0.2 -- -- 71
2019-04-22 19:00:00 15.1 11 Nordeste 31 Nordeste 0 -- -- 61
2019-04-22 18:00:00 15.4 14 Nordeste 33 Nordeste 0 -- -- 58
2019-04-22 17:00:00 15.6 16 Este 29 Este 0 -- -- 57
2019-04-22 16:00:00 15.6 14 Este 50 Nordeste 0 -- -- 55
2019-04-22 15:00:00 15.9 28 Nordeste 46 Este 0 -- -- 56
2019-04-22 14:00:00 15.6 26 Nordeste 51 Este 0 -- -- 60
2019-04-22 13:00:00 15.8 17 Este 47 Nordeste 0 -- -- 59
2019-04-22 12:00:00 16.9 23 Este 49 Nordeste 0 -- -- 54
2019-04-22 11:00:00 16.8 19 Este 32 Nordeste 0 -- -- 56
2019-04-22 10:00:00 13.7 18 Nordeste 33 Nordeste 0 -- -- 60
2019-04-22 09:00:00 13.3 6 Norte 18 Nordeste 0 -- -- 63
2019-04-22 08:00:00 12.3 10 Nordeste 24 Nordeste 0 -- -- 63
2019-04-22 07:00:00 11.5 4 Norte 10 Norte 0 -- -- 63
2019-04-22 06:00:00 13.1 5 Noroeste 15 Este 0 -- -- 55
2019-04-22 05:00:00 12.7 7 Nordeste 22 Nordeste 0 -- -- 58
2019-04-22 04:00:00 11.6 6 Nordeste 13 Norte 0 -- -- 64
2019-04-22 03:00:00 11.3 6 Norte 14 Nordeste 0 -- -- 65
2019-04-22 02:00:00 10 3 Sur 8 Noroeste 0 -- -- 78
2019-04-22 01:00:00 10.3 0 Calma 9 Noroeste 0 -- -- 76
2019-04-22 00:00:00 10.2 4 Noroeste 9 Norte 0 -- -- 76
2019-04-21 23:00:00 12.3 6 Norte 14 Noroeste 0 -- -- 64
2019-04-21 22:00:00 13 6 Este 20 Este 0 -- -- 61
2019-04-21 21:00:00 14.1 13 Este 33 Nordeste 0 -- -- 58
2019-04-21 20:00:00 14.9 14 Nordeste 40 Nordeste 0 -- -- 56
2019-04-21 19:00:00 15.2 23 Nordeste 47 Nordeste 0 -- -- 54
2019-04-21 18:00:00 15.5 22 Este 46 Nordeste 0 -- -- 54
2019-04-21 17:00:00 17.1 22 Nordeste 42 Nordeste 0 -- -- 51
2019-04-21 16:00:00 16.9 21 Este 47 Nordeste 0 -- -- 47
2019-04-21 15:00:00 16 27 Nordeste 50 Nordeste 0 -- -- 51
2019-04-21 14:00:00 15.4 22 Nordeste 51 Este 0 -- -- 52
2019-04-21 13:00:00 14.7 24 Nordeste 44 Norte 0 -- -- 55
2019-04-21 12:00:00 14.3 18 Nordeste 47 Este 0 -- -- 63
2019-04-21 11:00:00 14.6 19 Este 43 Este 0 -- -- 59
2019-04-21 10:00:00 14.1 9 Este 21 Norte 0 -- -- 63
2019-04-21 09:00:00 11.5 12 Norte 22 Norte 0 -- -- 73
2019-04-21 08:00:00 9.9 8 Nordeste 14 Noroeste 0 -- -- 87
2019-04-21 07:00:00 9.7 3 Sur 12 Norte 0 -- -- 89
2019-04-21 06:00:00 9.2 5 Norte 11 Norte 0 -- -- 90
2019-04-21 05:00:00 9.3 8 Norte 18 Noroeste 0 -- -- 88
2019-04-21 04:00:00 8.7 10 Noroeste 13 Noroeste 0 -- -- 92
2019-04-21 03:00:00 9.2 0 Calma 9 Noroeste 0 -- -- 89
2019-04-21 02:00:00 9.4 8 Noroeste 16 Nordeste 0 -- -- 84
2019-04-21 01:00:00 8.7 12 Nordeste 25 Norte 0 -- -- 92
2019-04-21 00:00:00 8.8 9 Norte 27 Norte 0.8 -- -- 93
2019-04-20 23:00:00 9.1 19 Norte 25 Norte 0.8 -- -- 91
2019-04-20 22:00:00 9.4 13 Norte 22 Nordeste 5 -- -- 89
2019-04-20 21:00:00 11.1 7 Sudeste 26 Nordeste 1.8 -- -- 80
2019-04-20 20:00:00 12.8 15 Este 30 Nordeste 0.4 -- -- 64
2019-04-20 19:00:00 15.3 18 Nordeste 45 Este 0 -- -- 47
2019-04-20 18:00:00 16.4 22 Este 41 Este 0 -- -- 46
2019-04-20 17:00:00 16.8 23 Este 46 Este 0 -- -- 45
2019-04-20 16:00:00 17.4 23 Este 50 Este 0 -- -- 43
2019-04-20 15:00:00 18.1 20 Nordeste 47 Este 0 -- -- 43
2019-04-20 14:00:00 18 28 Este 49 Este 0 -- -- 43
2019-04-20 13:00:00 18.1 25 Este 46 Este 0 -- -- 41
2019-04-20 12:00:00 17.3 26 Este 54 Este 0 -- -- 41
2019-04-20 11:00:00 18.4 19 Nordeste 48 Nordeste 0 -- -- 42
2019-04-20 10:00:00 16.7 17 Nordeste 33 Nordeste 0 -- -- 45
2019-04-20 09:00:00 12.6 9 Norte 13 Norte 0 -- -- 53
2019-04-20 08:00:00 10.4 9 Norte 14 Norte 0 -- -- 58
2019-04-20 07:00:00 10.1 5 Norte 14 Norte 0 -- -- 58
2019-04-20 06:00:00 11.7 9 Norte 15 Norte 0 -- -- 52
2019-04-20 05:00:00 12.7 9 Noroeste 13 Noroeste 0 -- -- 49
2019-04-20 04:00:00 13.2 6 Norte 14 Noroeste 0 -- -- 48
2019-04-20 03:00:00 13.3 9 Norte 17 Nordeste 0 -- -- 50
2019-04-20 02:00:00 12.7 10 Nordeste 23 Norte 0 -- -- 52
2019-04-20 01:00:00 12.2 10 Nordeste 21 Nordeste 0 -- -- 51
2019-04-20 00:00:00 13.3 5 Nordeste 14 Este 0 -- -- 45
2019-04-19 23:00:00 14.5 5 Sudeste 9 Este 0 -- -- 45
2019-04-19 22:00:00 14.9 7 Nordeste 24 Nordeste 0 -- -- 47
2019-04-19 21:00:00 15.4 17 Nordeste 29 Nordeste 0 -- -- 50
2019-04-19 20:00:00 17 19 Este 47 Este 0 -- -- 44
2019-04-19 19:00:00 18.4 24 Este 48 Este 0 -- -- 34
2019-04-19 18:00:00 18.9 25 Este 49 Este 0 -- -- 33
2019-04-19 17:00:00 19.2 24 Este 62 Este 0 -- -- 31
2019-04-19 16:00:00 19.5 32 Este 57 Nordeste 0 -- -- 36
2019-04-19 15:00:00 19.7 24 Este 59 Este 0 -- -- 38
2019-04-19 14:00:00 18.7 25 Este 54 Nordeste 0 -- -- 38
2019-04-19 13:00:00 17.5 28 Nordeste 56 Nordeste 0 -- -- 41
2019-04-19 12:00:00 16.6 21 Este 36 Nordeste 0 -- -- 51
2019-04-19 11:00:00 15.9 19 Nordeste 34 Nordeste 0 -- -- 53
2019-04-19 10:00:00 15.1 10 Nordeste 31 Nordeste 0 -- -- 56
2019-04-19 09:00:00 14.4 17 Este 27 Este 0 -- -- 53
2019-04-19 08:00:00 14 8 Este 23 Nordeste 0 -- -- 51
2019-04-19 07:00:00 13.9 10 Este 21 Este 0 -- -- 51
2019-04-19 06:00:00 13.9 9 Nordeste 25 Este 0 -- -- 53
2019-04-19 05:00:00 13.6 8 Nordeste 19 Nordeste 0 -- -- 55
2019-04-19 04:00:00 13.8 13 Nordeste 33 Nordeste 0 -- -- 55
2019-04-19 03:00:00 13.8 16 Nordeste 33 Nordeste 0 -- -- 55
2019-04-19 02:00:00 13.7 18 Nordeste 38 Nordeste 0 -- -- 56
2019-04-19 01:00:00 13.8 19 Nordeste 43 Este 0 -- -- 52
2019-04-19 00:00:00 14.3 24 Nordeste 38 Nordeste 0 -- -- 50
2019-04-18 23:00:00 14.1 10 Nordeste 36 Nordeste 0 -- -- 50
2019-04-18 22:00:00 14.2 21 Nordeste 39 Nordeste 0 -- -- 50
2019-04-18 21:00:00 14.8 18 Este 40 Este 0 -- -- 46
2019-04-18 20:00:00 15.6 21 Nordeste 39 Nordeste 0 -- -- 44
2019-04-18 19:00:00 16.4 25 Nordeste 45 Este 0 -- -- 45
2019-04-18 18:00:00 17.1 29 Este 43 Este 0 -- -- 49
2019-04-18 17:00:00 17.8 24 Este 52 Nordeste 0 -- -- 48
2019-04-18 16:00:00 19.3 24 Nordeste 44 Este 0 -- -- 45
2019-04-18 15:00:00 18.3 22 Este 35 Este 0 -- -- 45
2019-04-18 14:00:00 17.3 16 Este 31 Este 0 -- -- 48
2019-04-18 13:00:00 16.2 17 Este 33 Este 0 -- -- 54
2019-04-18 12:00:00 15.1 10 Nordeste 25 Nordeste 0 -- -- 61
2019-04-18 11:00:00 13.8 4 Norte 9 Nordeste 0 -- -- 75
2019-04-18 10:00:00 11.2 3 Nordeste 5 Norte 0 -- -- 85
2019-04-18 09:00:00 8.3 3 Sur 8 Sudoeste 0 -- -- 95
2019-04-18 08:00:00 7.1 2 Norte 10 Noroeste 0 -- -- 95
2019-04-18 07:00:00 6.8 6 Norte 10 Noroeste 0 -- -- 96
2019-04-18 06:00:00 7.3 6 Noroeste 9 Noroeste 0 -- -- 96
2019-04-18 05:00:00 7.7 3 Noroeste 6 Norte 0 -- -- 95
2019-04-18 04:00:00 7.7 0 Calma 9 Noroeste 0 -- -- 94
2019-04-18 03:00:00 8.1 6 Noroeste 8 Noroeste 0 -- -- 92
2019-04-18 02:00:00 9 4 Noroeste 8 Noroeste 0 -- -- 91
2019-04-18 01:00:00 9.2 3 Noroeste 6 Noroeste 0 -- -- 89
2019-04-18 00:00:00 10.2 3 Noroeste 6 Norte 0 -- -- 86
2019-04-17 23:00:00 11.9 5 Sudoeste 13 Sur 0 -- -- 81
2019-04-17 22:00:00 13 9 Sur 18 Sur 0 -- -- 75
2019-04-17 21:00:00 14.1 11 Sur 19 Sudeste 0 -- -- 71
2019-04-17 20:00:00 15.8 12 Sur 22 Sur 0 -- -- 66
2019-04-17 19:00:00 17.2 14 Sur 24 Sudoeste 0 -- -- 61
2019-04-17 18:00:00 18.5 16 Sur 31 Sudoeste 0 -- -- 54
2019-04-17 17:00:00 19.3 17 Sur 26 Sur 0 -- -- 54
2019-04-17 16:00:00 18.9 12 Sur 26 Sur 0 -- -- 56
2019-04-17 15:00:00 19.1 13 Sur 25 Sur 0 -- -- 50
2019-04-17 14:00:00 18.2 17 Sur 26 Sur 0 -- -- 49
2019-04-17 13:00:00 18.3 13 Sudeste 24 Sur 0 -- -- 56
2019-04-17 12:00:00 17.2 7 Sur 17 Sur 0 -- -- 57
2019-04-17 11:00:00 15.1 4 Este 10 Norte 0 -- -- 68
2019-04-17 10:00:00 12 4 Nordeste 8 Norte 0 -- -- 81
2019-04-17 09:00:00 7.8 5 Norte 8 Norte 0 -- -- 96
2019-04-17 08:00:00 5.2 4 Norte 9 Noroeste 0 -- -- 98
2019-04-17 07:00:00 4.9 6 Noroeste 9 Noroeste 0 -- -- 97
2019-04-17 06:00:00 6.4 3 Noroeste 8 Noroeste 0 -- -- 94
2019-04-17 05:00:00 8.1 0 Calma 6 Noroeste 0 -- -- 93
2019-04-17 04:00:00 8.9 3 Norte 7 Norte 0 -- -- 92
2019-04-17 03:00:00 8.8 4 Norte 9 Noroeste 0 -- -- 92
2019-04-17 02:00:00 9.2 6 Noroeste 7 Noroeste 0 -- -- 93
2019-04-17 01:00:00 10.8 2 Sudeste 4 Sudeste 0 -- -- 86
2019-04-17 00:00:00 11.2 2 Norte 4 Norte 0 -- -- 85
2019-04-16 23:00:00 11.5 3 Sudoeste 11 Sur 0 -- -- 85
2019-04-16 22:00:00 12 11 Sur 17 Sur 0 -- -- 82
2019-04-16 21:00:00 13.6 11 Sur 24 Sudoeste 0 -- -- 73
2019-04-16 20:00:00 15.5 13 Sur 31 Sur 0 -- -- 63
2019-04-16 19:00:00 16.9 14 Sur 24 Sur 0 -- -- 60
2019-04-16 18:00:00 17.9 10 Sur 21 Sur 0 -- -- 53
2019-04-16 17:00:00 17.7 10 Sur 20 Sudeste 0 -- -- 51
2019-04-16 16:00:00 17.5 11 Sudeste 21 Sur 0 -- -- 52
2019-04-16 15:00:00 17.9 11 Sudeste 18 Sur 0 -- -- 49
2019-04-16 14:00:00 18.3 6 Sudeste 13 Sudeste 0 -- -- 44
2019-04-16 13:00:00 15.8 3 Sudeste 8 Sudeste 0 -- -- 50
2019-04-16 12:00:00 11.9 5 Sur 10 Sudoeste 0 -- -- 75
2019-04-16 11:00:00 10.3 3 Sudeste 6 Sudeste 0 -- -- 81
2019-04-16 10:00:00 7.1 2 Noroeste 6 Noroeste 0 -- -- 96
2019-04-16 09:00:00 5 2 Sur 7 Noroeste 0 -- -- 98
2019-04-16 08:00:00 4 3 Sudeste 6 Noroeste 0 -- -- 96
2019-04-16 07:00:00 4.4 0 Calma 4 Sur 0 -- -- 94
2019-04-16 06:00:00 5.4 0 Calma 5 Norte 0 -- -- 94
2019-04-16 05:00:00 6 4 Noroeste 8 Norte 0 -- -- 95
2019-04-16 04:00:00 6 6 Noroeste 13 Noroeste 0 -- -- 93
2019-04-16 03:00:00 6.8 3 Sudoeste 10 Sudoeste 0.2 -- -- 91
2019-04-16 02:00:00 6.6 5 Norte 14 Norte 0.2 -- -- 88
2019-04-16 01:00:00 6.9 0 Calma 9 Norte 0 -- -- 79
2019-04-16 00:00:00 7.3 5 Norte 12 Noroeste 0 -- -- 74
2019-04-15 23:00:00 9.1 3 Oeste 8 Sudoeste 0 -- -- 63
2019-04-15 22:00:00 11.2 6 Sudoeste 11 Sur 0 -- -- 58
2019-04-15 21:00:00 12.8 5 Sur 18 Sur 0 -- -- 54
2019-04-15 20:00:00 14 10 Sudoeste 24 Sur 0 -- -- 49
2019-04-15 19:00:00 15.5 17 Sur 25 Sur 0 -- -- 45
2019-04-15 18:00:00 16 17 Sur 26 Sur 0 -- -- 49
2019-04-15 17:00:00 16.6 17 Sur 29 Sudoeste 0 -- -- 51
2019-04-15 16:00:00 17.4 14 Sur 23 Sur 0 -- -- 52
2019-04-15 15:00:00 16.7 16 Sur 27 Sur 0 -- -- 52
2019-04-15 14:00:00 16.4 14 Sur 27 Sur 0 -- -- 52
2019-04-15 13:00:00 15.9 14 Sur 24 Sudeste 0 -- -- 51
2019-04-15 12:00:00 14.7 11 Sur 20 Sur 0 -- -- 56
2019-04-15 11:00:00 13.2 7 Sudeste 12 Este 0 -- -- 65
2019-04-15 10:00:00 9.4 2 Nordeste 6 Sur 0 -- -- 81
2019-04-15 09:00:00 6.3 3 Nordeste 8 Noroeste 0 -- -- 91
2019-04-15 08:00:00 4 0 Calma 5 Noroeste 0 -- -- 95
2019-04-15 07:00:00 3.7 0 Calma 5 Sur 0 -- -- 94
2019-04-15 06:00:00 3.6 5 Norte 8 Norte 0 -- -- 95
2019-04-15 05:00:00 4.9 2 Sudoeste 10 Noroeste 0 -- -- 92
2019-04-15 04:00:00 4.9 3 Norte 7 Norte 0 -- -- 93
2019-04-15 03:00:00 5.3 4 Norte 6 Noroeste 0 -- -- 92
2019-04-15 02:00:00 6.2 4 Noroeste 9 Norte 0 -- -- 85
2019-04-15 01:00:00 7.5 7 Noroeste 10 Noroeste 0 -- -- 83
2019-04-15 00:00:00 8.6 6 Norte 8 Norte 0 -- -- 77
2019-04-14 23:00:00 11 4 Noroeste 12 Sudoeste 0 -- -- 65
2019-04-14 22:00:00 12.7 8 Sudoeste 14 Sur 0 -- -- 57
2019-04-14 21:00:00 14.3 8 Sur 22 Sur 0 -- -- 60
2019-04-14 20:00:00 16.1 14 Sur 26 Sur 0 -- -- 61
2019-04-14 19:00:00 18.3 20 Sur 31 Sur 0 -- -- 54
2019-04-14 18:00:00 19.8 23 Sur 34 Sur 0 -- -- 48
2019-04-14 17:00:00 21 19 Sur 30 Sur 0 -- -- 42
2019-04-14 16:00:00 21.2 18 Sur 28 Sur 0 -- -- 40
2019-04-14 15:00:00 20.8 18 Sur 31 Sur 0 -- -- 39
2019-04-14 14:00:00 18.5 10 Sur 19 Sur 0 -- -- 40
2019-04-14 13:00:00 18 13 Sur 21 Sudeste 0 -- -- 41
2019-04-14 12:00:00 15 10 Sudeste 17 Sudeste 0 -- -- 53
2019-04-14 11:00:00 12 5 Sur 9 Sudeste 0 -- -- 56
2019-04-14 10:00:00 7.1 3 Este 7 Sur 0 -- -- 81
2019-04-14 09:00:00 3.2 2 Nordeste 7 Norte 0 -- -- 93
2019-04-14 08:00:00 2.4 0 Calma 8 Noroeste 0 -- -- 95
2019-04-14 07:00:00 1.6 5 Norte 8 Norte 0 -- -- 94
2019-04-14 06:00:00 2.3 3 Sur 8 Norte 0 -- -- 93
2019-04-14 05:00:00 2.2 0 Calma 6 Norte 0 -- -- 93
2019-04-14 04:00:00 3.8 2 Sur 9 Norte 0 -- -- 87
2019-04-14 03:00:00 4.3 5 Norte 9 Norte 0 -- -- 91
2019-04-14 02:00:00 6 4 Noroeste 8 Noroeste 0 -- -- 83
2019-04-14 01:00:00 7.5 2 Noroeste 14 Norte 0 -- -- 77
2019-04-14 00:00:00 9.8 2 Norte 10 Norte 0 -- -- 68
2019-04-13 23:00:00 12.5 4 Sudoeste 12 Sur 0 -- -- 61
2019-04-13 22:00:00 13.8 10 Sudoeste 20 Sudoeste 0 -- -- 55
2019-04-13 21:00:00 15.3 14 Sudoeste 25 Sur 0 -- -- 47
2019-04-13 20:00:00 17.9 14 Sur 26 Sudoeste 0 -- -- 38
2019-04-13 19:00:00 19.8 15 Sudoeste 29 Sudoeste 0 -- -- 27
2019-04-13 18:00:00 20.7 14 Oeste 26 Sudoeste 0 -- -- 27
2019-04-13 17:00:00 21.5 12 Sudoeste 24 Sudoeste 0 -- -- 25
2019-04-13 16:00:00 21.4 14 Sur 28 Sur 0 -- -- 27
2019-04-13 15:00:00 20.6 9 Sudoeste 26 Sur 0 -- -- 31
2019-04-13 14:00:00 19 10 Sur 19 Sudeste 0 -- -- 39
2019-04-13 13:00:00 16.3 8 Sudeste 17 Sudeste 0 -- -- 50
2019-04-13 12:00:00 13.9 6 Este 11 Este 0 -- -- 61
2019-04-13 11:00:00 10.9 6 Este 10 Nordeste 0 -- -- 69
2019-04-13 10:00:00 7.5 3 Nordeste 8 Nordeste 0 -- -- 83
2019-04-13 09:00:00 4.4 6 Norte 10 Norte 0 -- -- 86
2019-04-13 08:00:00 3.4 6 Norte 10 Norte 0 -- -- 87
2019-04-13 07:00:00 3.8 6 Norte 13 Norte 0 -- -- 90
2019-04-13 06:00:00 4.1 8 Norte 12 Norte 0 -- -- 94
2019-04-13 05:00:00 3.3 6 Norte 10 Noroeste 0 -- -- 97
2019-04-13 04:00:00 4 3 Norte 9 Noroeste 0 -- -- 96
2019-04-13 03:00:00 4.3 6 Norte 13 Norte 0 -- -- 93
2019-04-13 02:00:00 5.3 0 Calma 10 Noroeste 0 -- -- 93
2019-04-13 01:00:00 6.5 8 Norte 12 Norte 0 -- -- 94
2019-04-13 00:00:00 7.8 7 Noroeste 11 Noroeste 0 -- -- 90
2019-04-12 23:00:00 9.1 4 Norte 11 Sur 0 -- -- 85
2019-04-12 22:00:00 11 8 Sudoeste 15 Sur 0 -- -- 79
2019-04-12 21:00:00 12.5 10 Sur 23 Sudeste 0 -- -- 74
2019-04-12 20:00:00 14.3 13 Sur 27 Sur 0 -- -- 63
2019-04-12 19:00:00 16.8 20 Sur 31 Sur 0 -- -- 52
2019-04-12 18:00:00 20.2 11 Sudoeste 27 Sudoeste 0 -- -- 39
2019-04-12 17:00:00 20.4 9 Sudoeste 27 Sudoeste 0 -- -- 28
2019-04-12 16:00:00 19.7 12 Noroeste 23 Sudoeste 0 -- -- 30
2019-04-12 15:00:00 19.2 11 Sudoeste 25 Sudoeste 0 -- -- 33
2019-04-12 14:00:00 18.2 10 Sudoeste 22 Sudoeste 0 -- -- 37
2019-04-12 13:00:00 16.8 8 Sudoeste 20 Sudoeste 0 -- -- 46
2019-04-12 12:00:00 15.4 10 Sur 18 Sudoeste 0 -- -- 53
2019-04-12 11:00:00 12.7 10 Sudeste 17 Sudeste 0 -- -- 60
2019-04-12 10:00:00 10.8 8 Sudoeste 15 Sudoeste 0 -- -- 64
2019-04-12 09:00:00 8.7 4 Sudeste 8 Sudeste 0 -- -- 76
2019-04-12 08:00:00 6.8 3 Sudeste 6 Sur 0 -- -- 88
2019-04-12 07:00:00 6.3 2 Sudoeste 6 Sudoeste 0 -- -- 88
2019-04-12 06:00:00 6.5 4 Sur 9 Sudoeste 0 -- -- 88
2019-04-12 05:00:00 6.3 3 Sur 7 Norte 0 -- -- 88
2019-04-12 04:00:00 6.1 0 Calma 8 Norte 0 -- -- 88
2019-04-12 03:00:00 7.1 3 Noroeste 9 Noroeste 0 -- -- 85
2019-04-12 02:00:00 7.8 4 Noroeste 7 Noroeste 0 -- -- 82
2019-04-12 01:00:00 8.3 5 Norte 9 Noroeste 0 -- -- 79
2019-04-12 00:00:00 9.5 3 Oeste 11 Noroeste 0 -- -- 74
2019-04-11 23:00:00 11.2 6 Noroeste 12 Noroeste 0 -- -- 66
2019-04-11 22:00:00 13.4 3 Sur 10 Sur 0 -- -- 58
2019-04-11 21:00:00 14.3 5 Sur 15 Sudoeste 0 -- -- 52
2019-04-11 20:00:00 15.3 14 Sudoeste 19 Sudoeste 0 -- -- 48
2019-04-11 19:00:00 16.6 7 Sur 18 Este 0 -- -- 42
2019-04-11 18:00:00 16.9 9 Este 26 Este 0 -- -- 44
2019-04-11 17:00:00 17.5 3 Sudeste 30 Noroeste 0 -- -- 39
2019-04-11 16:00:00 18.4 6 Oeste 24 Noroeste 0 -- -- 37
2019-04-11 15:00:00 18.4 12 Sudoeste 28 Noroeste 0 -- -- 38
2019-04-11 14:00:00 17.3 11 Sudoeste 24 Sudoeste 0 -- -- 41
2019-04-11 13:00:00 17.2 7 Sudeste 19 Sudoeste 0 -- -- 43
2019-04-11 12:00:00 14.8 9 Sudeste 16 Sudeste 0 -- -- 58
2019-04-11 11:00:00 11.9 8 Sudeste 13 Sudeste 0 -- -- 65
2019-04-11 10:00:00 8.2 6 Sur 9 Sur 0 -- -- 85
2019-04-11 09:00:00 4 3 Nordeste 6 Nordeste 0 -- -- 98
2019-04-11 08:00:00 2.2 4 Norte 9 Norte 0 -- -- 99
2019-04-11 07:00:00 2.6 3 Sudoeste 9 Norte 0 -- -- 98
2019-04-11 06:00:00 2.9 6 Norte 9 Norte 0 -- -- 97
2019-04-11 05:00:00 4.4 4 Noroeste 8 Noroeste 0 -- -- 97
2019-04-11 04:00:00 5.5 2 Este 6 Sudoeste 0 -- -- 96
2019-04-11 03:00:00 6.3 0 Calma 8 Noroeste 0 -- -- 96
2019-04-11 02:00:00 6.8 5 Noroeste 8 Norte 0 -- -- 96
2019-04-11 01:00:00 7.1 5 Norte 14 Norte 0 -- -- 95
2019-04-11 00:00:00 6.9 11 Norte 20 Noroeste 0 -- -- 95
2019-04-10 23:00:00 8.1 5 Norte 11 Norte 0 -- -- 92
2019-04-10 22:00:00 8.8 4 Noroeste 15 Noroeste 0 -- -- 89
2019-04-10 21:00:00 9.7 10 Noroeste 14 Sudoeste 0 -- -- 87
2019-04-10 20:00:00 11.2 10 Sur -- -- 0.2 -- -- 80
2019-04-10 19:00:00 12.4 25 Sur 37 Sur 0 -- -- 68
2019-04-10 18:00:00 15.2 13 Sur 26 Este 0 -- -- 55
2019-04-10 17:00:00 17 5 Sudeste 15 Sur 0 -- -- 40
2019-04-10 16:00:00 16.3 8 Sur 24 Noroeste 0 -- -- 48
2019-04-10 15:00:00 15.5 14 Noroeste 33 Noroeste 0 -- -- 44
2019-04-10 14:00:00 15.8 8 Noroeste 21 Sur 0 -- -- 50
2019-04-10 13:00:00 15.8 11 Sudeste 18 Sur 0 -- -- 59
2019-04-10 12:00:00 13.3 8 Sur 14 Sur 0 -- -- 71
2019-04-10 11:00:00 10.7 6 Este 10 Sur 0 -- -- 79
2019-04-10 10:00:00 7.2 3 Sudeste 6 Sur 0 -- -- 90
2019-04-10 09:00:00 2.9 4 Norte 8 Norte 0 -- -- 100
2019-04-10 08:00:00 0.8 2 Sudoeste 9 Norte 0 -- -- 100
2019-04-10 07:00:00 0.7 6 Noroeste 9 Noroeste 0 -- -- 98
2019-04-10 06:00:00 1.1 3 Noroeste 10 Norte 0 -- -- 98
2019-04-10 05:00:00 1.2 5 Norte 9 Norte 0 -- -- 99
2019-04-10 04:00:00 1.8 5 Norte 10 Noroeste 0 -- -- 98
2019-04-10 03:00:00 3.3 3 Norte 13 Norte 0 -- -- 98
2019-04-10 02:00:00 3.3 5 Norte 12 Noroeste 0 -- -- 97
2019-04-10 01:00:00 4.7 6 Noroeste 9 Noroeste 0 -- -- 97
2019-04-10 00:00:00 5.5 5 Noroeste 10 Noroeste 0 -- -- 96
2019-04-09 23:00:00 7 4 Noroeste 9 Noroeste 0 -- -- 94
2019-04-09 22:00:00 7.8 5 Norte 8 Norte 0 -- -- 92
2019-04-09 21:00:00 8.9 7 Sur 17 Sudoeste 0 -- -- 85
2019-04-09 20:00:00 9.3 5 Sudoeste 12 Sur 0 -- -- 89
2019-04-09 19:00:00 9.6 10 Sur 20 Sur 0.2 -- -- 88
2019-04-09 18:00:00 9.5 5 Nordeste 20 Norte 0 -- -- 89
2019-04-09 17:00:00 9.2 16 Nordeste 25 Nordeste 1 -- -- 88
2019-04-09 16:00:00 10.3 13 Nordeste 28 Norte 0 -- -- 74
2019-04-09 15:00:00 15.9 9 Sur 30 Sur 0 -- -- 52
2019-04-09 14:00:00 15.4 10 Sur 20 Sur 0 -- -- 57
2019-04-09 13:00:00 14.6 2 Sudoeste 15 Sudoeste 0 -- -- 62
2019-04-09 12:00:00 14.7 6 Sur 15 Nordeste 0 -- -- 65
2019-04-09 11:00:00 13 5 Nordeste 13 Norte 0 -- -- 68
2019-04-09 10:00:00 11.3 6 Sudoeste 21 Noroeste 0 -- -- 77
2019-04-09 09:00:00 7.9 4 Sudeste 8 Sudeste 0 -- -- 89
2019-04-09 08:00:00 6 3 Sudoeste 6 Sur 0 -- -- 93
2019-04-09 07:00:00 6.7 4 Sur 11 Noroeste 0 -- -- 91
2019-04-09 06:00:00 7.7 5 Sur 10 Noroeste 0 -- -- 88
2019-04-09 05:00:00 6.9 4 Norte 7 Nordeste 0 -- -- 91
2019-04-09 04:00:00 7.4 0 Calma 9 Norte 0 -- -- 88
2019-04-09 03:00:00 7.4 5 Norte 8 Norte 0 -- -- 88
2019-04-09 02:00:00 8.9 0 Calma 10 Noroeste 0 -- -- 82
2019-04-09 01:00:00 10.6 10 Noroeste 13 Noroeste 0 -- -- 76
2019-04-09 00:00:00 11.8 6 Norte 12 Noroeste 0 -- -- 76
2019-04-08 23:00:00 13.2 6 Noroeste 9 Nordeste 0 -- -- 69
2019-04-08 22:00:00 13.4 3 Nordeste 11 Norte 0 -- -- 68
2019-04-08 21:00:00 14.8 3 Sudoeste 10 Sudoeste 0 -- -- 61
2019-04-08 20:00:00 16.6 3 Sudoeste 16 Sudoeste 0 -- -- 56
2019-04-08 19:00:00 18.2 8 Noroeste 25 Sudoeste 0 -- -- 50
2019-04-08 18:00:00 18.6 12 Sudoeste 25 Sudoeste 0 -- -- 49
2019-04-08 17:00:00 18.4 13 Sudoeste 28 Sudoeste 0 -- -- 51
2019-04-08 16:00:00 18.6 12 Sudoeste 31 Sudoeste 0 -- -- 47
2019-04-08 15:00:00 17.1 17 Sudoeste 31 Sudoeste 0 -- -- 52
2019-04-08 14:00:00 16.8 15 Sudoeste 29 Sudoeste 0 -- -- 46
2019-04-08 13:00:00 15.6 20 Sudoeste 31 Sudoeste 0 -- -- 51
2019-04-08 12:00:00 13.8 8 Sur 15 Sur 0 -- -- 61
2019-04-08 11:00:00 10.1 6 Sur 13 Sur 0 -- -- 75
2019-04-08 10:00:00 7.7 3 Sudeste 7 Norte 0 -- -- 83
2019-04-08 09:00:00 4.6 2 Nordeste 5 Nordeste 0 -- -- 98
2019-04-08 08:00:00 2.6 4 Norte 5 Norte 0 -- -- 98
2019-04-08 07:00:00 2.3 2 Sudeste 5 Norte 0 -- -- 98
2019-04-08 06:00:00 2.2 3 Norte 3 Norte 0 -- -- 98
2019-04-08 05:00:00 2.3 0 Calma 4 Norte 0 -- -- 98
2019-04-08 04:00:00 2 4 Norte 5 Noroeste 0 -- -- 97
2019-04-08 03:00:00 2.7 3 Norte 8 Noroeste 0 -- -- 97
2019-04-08 02:00:00 3.1 3 Noroeste 9 Noroeste 0 -- -- 95
2019-04-08 01:00:00 4.4 7 Noroeste 11 Norte 0 -- -- 96
2019-04-08 00:00:00 4.4 5 Norte 9 Noroeste 0 -- -- 92
2019-04-07 23:00:00 5.7 4 Norte 9 Noroeste 0 -- -- 91
2019-04-07 22:00:00 7.1 2 Nordeste 8 Noroeste 0 -- -- 84
2019-04-07 21:00:00 8.8 3 Noroeste 15 Sur 0 -- -- 79
2019-04-07 20:00:00 9.6 11 Sur 27 Sur 0 -- -- 75
2019-04-07 19:00:00 11.4 20 Sur 32 Sur 0 -- -- 69
2019-04-07 18:00:00 12.2 12 Sudoeste 22 Sudoeste 0 -- -- 66
2019-04-07 17:00:00 11.6 11 Sur 18 Sur 0 -- -- 71
2019-04-07 16:00:00 13.2 6 Nordeste 21 Este 0 -- -- 52
2019-04-07 15:00:00 12.7 5 Noroeste 22 Sur 0 -- -- 59
2019-04-07 14:00:00 15.7 10 Sudeste 21 Sur 0 -- -- 50
2019-04-07 13:00:00 13.8 12 Sur 19 Sudoeste 0 -- -- 56
2019-04-07 12:00:00 12.4 8 Sur 21 Sudoeste 0 -- -- 63
2019-04-07 11:00:00 10.1 4 Sudeste 10 Este 0 -- -- 69
2019-04-07 10:00:00 6.3 3 Nordeste 8 Norte 0 -- -- 84
2019-04-07 09:00:00 2.4 4 Norte 8 Norte 0 -- -- 96
2019-04-07 08:00:00 1.1 2 Sur 9 Norte 0 -- -- 98
2019-04-07 07:00:00 0.5 4 Noroeste 9 Norte 0 -- -- 95
2019-04-07 06:00:00 1.4 6 Norte 9 Norte 0 -- -- 95
2019-04-07 05:00:00 2.5 5 Norte 11 Noroeste 0 -- -- 91
2019-04-07 04:00:00 3.9 4 Norte 6 Norte 0 -- -- 89
2019-04-07 03:00:00 5.4 0 Calma 11 Sudoeste 0 -- -- 84
2019-04-07 02:00:00 6.6 4 Sur 6 Sudoeste 0 -- -- 80
2019-04-07 01:00:00 7.5 3 Oeste 21 Noroeste 0 -- -- 75
2019-04-07 00:00:00 7.3 6 Noroeste 12 Oeste 0 -- -- 79
2019-04-06 23:00:00 7.9 4 Noroeste 10 Noroeste 0 -- -- 75
2019-04-06 22:00:00 9.4 8 Sur 24 Sur 0 -- -- 67
2019-04-06 21:00:00 9.9 14 Sur 23 Sudoeste 0 -- -- 67
2019-04-06 20:00:00 11 17 Sur 33 Sur 0 -- -- 60
2019-04-06 19:00:00 12.3 6 Sudoeste 22 Sudoeste 0 -- -- 49
2019-04-06 18:00:00 12.8 16 Sudoeste 29 Sudoeste 0 -- -- 47
2019-04-06 17:00:00 13.1 11 Oeste 27 Noroeste 0 -- -- 46
2019-04-06 16:00:00 11.7 10 Noroeste 30 Oeste 0 -- -- 58
2019-04-06 15:00:00 11.5 10 Sudoeste 30 Oeste 0 -- -- 61
2019-04-06 14:00:00 10.8 11 Oeste 41 Noroeste 0 -- -- 68
2019-04-06 13:00:00 9.4 13 Noroeste 33 Oeste 0 -- -- 77
2019-04-06 12:00:00 7.9 13 Sudoeste 31 Sur 0 -- -- 84
2019-04-06 11:00:00 6.2 8 Sudoeste 28 Sur 0.4 -- -- 92
2019-04-06 10:00:00 6 5 Sur 17 Sudoeste 0 -- -- 94
2019-04-06 09:00:00 5.6 5 Noroeste 13 Noroeste 0 -- -- 96
2019-04-06 08:00:00 5.1 5 Oeste 21 Sudoeste 0 -- -- 96
2019-04-06 07:00:00 5.4 11 Sudoeste 20 Sur 0 -- -- 96
2019-04-06 06:00:00 5.8 3 Sudoeste 19 Sudoeste 0.4 -- -- 97
2019-04-06 05:00:00 6 8 Sudoeste 21 Sur 0 -- -- 98
2019-04-06 04:00:00 5.2 4 Noroeste 6 Noroeste 0.2 -- -- 98
2019-04-06 03:00:00 5.4 3 Norte 16 Norte 0.4 -- -- 97
2019-04-06 02:00:00 6.2 12 Norte 19 Nordeste 1.2 -- -- 97
2019-04-06 01:00:00 7.5 6 Norte 12 Norte 1 -- -- 98
2019-04-06 00:00:00 7.6 3 Este 26 Sudoeste 9.2 -- -- 96
2019-04-05 23:00:00 8.5 8 Noroeste 24 Sudeste 6.6 -- -- 95
2019-04-05 22:00:00 10 12 Sudeste 23 Sudeste 0.4 -- -- 84
2019-04-05 21:00:00 11.6 8 Este 23 Sur 0 -- -- 72
2019-04-05 20:00:00 12.3 18 Sur 30 Sur 0 -- -- 62
2019-04-05 19:00:00 13.2 19 Sur 32 Sur 0 -- -- 61
2019-04-05 18:00:00 12.8 4 Norte 14 Norte 0 -- -- 65
2019-04-05 17:00:00 12.1 8 Noroeste 19 Norte 0 -- -- 70
2019-04-05 16:00:00 11.9 13 Noroeste 20 Noroeste 0 -- -- 70
2019-04-05 15:00:00 13.4 5 Nordeste 10 Sudeste 0 -- -- 67
2019-04-05 14:00:00 11.2 4 Sudeste 8 Este 0 -- -- 69
2019-04-05 13:00:00 8.8 3 Este 24 Noroeste 0.4 -- -- 81
2019-04-05 12:00:00 8.3 2 Nordeste 6 Sudeste 0 -- -- 65
2019-04-05 11:00:00 5.9 4 Sur 6 Sur 0 -- -- 69
2019-04-05 10:00:00 4.2 2 Nordeste 7 Nordeste 0 -- -- 76
2019-04-05 09:00:00 1.9 3 Nordeste 8 Norte 0 -- -- 83
2019-04-05 08:00:00 -0.4 3 Norte 12 Norte 0 -- -- 91
2019-04-05 07:00:00 -2 4 Norte 8 Norte 0 -- -- 95
2019-04-05 06:00:00 -2.1 2 Noroeste 6 Norte 0 -- -- 93
2019-04-05 05:00:00 -1 0 Calma 8 Noroeste 0 -- -- 92
2019-04-05 04:00:00 -1.4 4 Noroeste 6 Norte 0 -- -- 90
2019-04-05 03:00:00 -0.1 2 Noroeste 6 Noroeste 0 -- -- 90
2019-04-05 02:00:00 0.9 4 Norte 6 Noroeste 0 -- -- 84
2019-04-05 01:00:00 2.2 6 Norte 10 Norte 0 -- -- 76
2019-04-05 00:00:00 3.9 0 Calma 11 Noroeste 0 -- -- 73
2019-04-04 23:00:00 5.6 4 Norte 13 Sur 0 -- -- 66
2019-04-04 22:00:00 8.1 10 Sudoeste 16 Sur 0 -- -- 62
2019-04-04 21:00:00 9.9 8 Sur 13 Sudoeste 0 -- -- 41
2019-04-04 20:00:00 12 8 Sudoeste 26 Sudoeste 0 -- -- 35
2019-04-04 19:00:00 13.6 12 Noroeste 26 Sudoeste 0 -- -- 31
2019-04-04 18:00:00 14.9 8 Oeste 36 Sudoeste 0 -- -- 30
2019-04-04 17:00:00 14.7 17 Sudoeste 33 Sudoeste 0 -- -- 29
2019-04-04 16:00:00 14.7 10 Sudoeste 32 Sudoeste 0 -- -- 27
2019-04-04 15:00:00 13.3 11 Noroeste 27 Sudoeste 0 -- -- 31
2019-04-04 14:00:00 13 12 Sur 30 Sudoeste 0 -- -- 38
2019-04-04 13:00:00 11.7 15 Sur 24 Sur 0 -- -- 47
2019-04-04 12:00:00 9.7 9 Sur 18 Sudeste 0 -- -- 51
2019-04-04 11:00:00 8.1 8 Nordeste 22 Noroeste 0 -- -- 60
2019-04-04 10:00:00 4.4 13 Noroeste 22 Noroeste 0 -- -- 65
2019-04-04 09:00:00 2.7 5 Norte 13 Nordeste 0 -- -- 74
2019-04-04 08:00:00 -0.4 4 Nordeste 9 Noroeste 0 -- -- 87
2019-04-04 07:00:00 -1.3 8 Norte 15 Noroeste 0 -- -- 89
2019-04-04 06:00:00 1.8 3 Sudoeste 9 Noroeste 0 -- -- 78
2019-04-04 05:00:00 2.5 3 Norte 21 Oeste 0 -- -- 75
2019-04-04 04:00:00 3.8 7 Noroeste 17 Oeste 0 -- -- 68
2019-04-04 03:00:00 4.4 6 Sudoeste 22 Sudoeste 0 -- -- 70
2019-04-04 02:00:00 4.9 4 Noroeste 30 Noroeste 0 -- -- 69
2019-04-04 01:00:00 5.4 6 Sudeste 9 Sudeste 0 -- -- 80
2019-04-04 00:00:00 6.6 4 Sudeste 10 Noroeste 0 -- -- 79
2019-04-03 23:00:00 7.5 7 Oeste 19 Oeste 0 -- -- 74
2019-04-03 22:00:00 8.2 10 Noroeste 23 Oeste 0 -- -- 69
2019-04-03 21:00:00 8.5 4 Oeste 14 Sudoeste 0 -- -- 78
2019-04-03 20:00:00 9.3 4 Sur 18 Sudoeste 0.2 -- -- 74
2019-04-03 19:00:00 10.2 9 Sudoeste 18 Sudoeste 0 -- -- 68
2019-04-03 18:00:00 10.8 9 Sur 17 Sudoeste 0.2 -- -- 77
2019-04-03 17:00:00 12.3 9 Sudoeste 20 Sudoeste 0 -- -- 64
2019-04-03 16:00:00 13.3 12 Sudoeste 23 Sudoeste 0 -- -- 59
2019-04-03 15:00:00 13 13 Sudoeste 24 Sudoeste 0 -- -- 62
2019-04-03 14:00:00 13.2 6 Oeste 17 Noroeste 0 -- -- 65
2019-04-03 13:00:00 13.3 11 Oeste 20 Oeste 0 -- -- 67
2019-04-03 12:00:00 13.2 6 Sudoeste 18 Sur 0 -- -- 74
2019-04-03 11:00:00 12.4 9 Sur 17 Sudoeste 0 -- -- 85
2019-04-03 10:00:00 12.1 12 Sur 20 Sudoeste 0 -- -- 84
2019-04-03 09:00:00 11.1 9 Sur 15 Sur 0 -- -- 89
2019-04-03 08:00:00 10.5 5 Sur 10 Sudeste 0 -- -- 89
2019-04-03 07:00:00 10.4 3 Nordeste 5 Sur 0 -- -- 83
2019-04-03 06:00:00 10.5 3 Sudoeste 5 Sudoeste 0 -- -- 81
2019-04-03 05:00:00 10.6 0 Calma 3 Norte 0 -- -- 80
2019-04-03 04:00:00 10.8 2 Norte 5 Noroeste 0 -- -- 79
2019-04-03 03:00:00 10.9 0 Calma 6 Nordeste 0 -- -- 77
2019-04-03 02:00:00 11.1 2 Norte 9 Nordeste 0 -- -- 77
2019-04-03 01:00:00 11.1 8 Nordeste 12 Nordeste 0 -- -- 76
2019-04-03 00:00:00 11.6 6 Norte 9 Norte 0 -- -- 74
2019-04-02 23:00:00 11.9 8 Nordeste 17 Este 0 -- -- 71
2019-04-02 22:00:00 12.3 10 Nordeste 29 Nordeste 0 -- -- 67
2019-04-02 21:00:00 13.1 6 Norte 27 Este 0 -- -- 64
2019-04-02 20:00:00 14.5 18 Este 33 Este 0 -- -- 60
2019-04-02 19:00:00 17.6 8 Noroeste 28 Noroeste 0 -- -- 47
2019-04-02 18:00:00 18.9 13 Noroeste 30 Noroeste 0 -- -- 40
2019-04-02 17:00:00 20.1 15 Sudoeste 29 Sudoeste 0 -- -- 39
2019-04-02 16:00:00 19.4 10 Sudoeste 41 Oeste 0 -- -- 45
2019-04-02 15:00:00 18.6 14 Sur 27 Sur 0 -- -- 49
2019-04-02 14:00:00 16.6 10 Sur 22 Sudeste 0 -- -- 53
2019-04-02 13:00:00 16.2 12 Sur 19 Sur 0 -- -- 52
2019-04-02 12:00:00 14.5 5 Sudeste 9 Este 0 -- -- 57
2019-04-02 11:00:00 11 4 Nordeste 6 Este 0 -- -- 65
2019-04-02 10:00:00 8 3 Norte 6 Noroeste 0 -- -- 77
2019-04-02 09:00:00 5.7 2 Norte 6 Noroeste 0 -- -- 84
2019-04-02 08:00:00 3.8 3 Norte 6 Noroeste 0 -- -- 91
2019-04-02 07:00:00 3.4 0 Calma 8 Noroeste 0 -- -- 91
2019-04-02 06:00:00 4.1 0 Calma 5 Noroeste 0 -- -- 88
2019-04-02 05:00:00 3.7 2 Noroeste 5 Norte 0 -- -- 88
2019-04-02 04:00:00 4.9 0 Calma 6 Noroeste 0 -- -- 82
2019-04-02 03:00:00 5 5 Noroeste 6 Norte 0 -- -- 82
2019-04-02 02:00:00 6.1 3 Noroeste 6 Noroeste 0 -- -- 78
2019-04-02 01:00:00 6.5 4 Norte 8 Noroeste 0 -- -- 76
2019-04-02 00:00:00 7 4 Noroeste 7 Noroeste 0 -- -- 73
2019-04-01 23:00:00 9.4 3 Norte 11 Sur 0 -- -- 62
2019-04-01 22:00:00 11.6 9 Sur 20 Sur 0 -- -- 55
2019-04-01 21:00:00 13.2 15 Sur 26 Sur 0 -- -- 49
2019-04-01 20:00:00 15 18 Sur 31 Sur 0 -- -- 45
2019-04-01 19:00:00 17 21 Sur 32 Sur 0 -- -- 42
2019-04-01 18:00:00 19 24 Sudoeste 36 Sur 0 -- -- 40
2019-04-01 17:00:00 20.5 11 Sur 27 Sudeste 0 -- -- 34
2019-04-01 16:00:00 19.8 15 Sudeste 27 Sudeste 0 -- -- 35
2019-04-01 15:00:00 19.5 10 Sudeste 23 Sur 0 -- -- 36
2019-04-01 14:00:00 19.2 9 Sur 22 Sur 0 -- -- 35
2019-04-01 13:00:00 17.3 10 Sur 17 Sudeste 0 -- -- 40
2019-04-01 12:00:00 15.6 9 Sudeste 14 Sudeste 0 -- -- 51
2019-04-01 11:00:00 13.9 5 Este 8 Este 0 -- -- 61
2019-04-01 10:00:00 9.7 3 Sudeste 6 Este 0 -- -- 75
2019-04-01 09:00:00 6.8 0 Calma 5 Norte 0 -- -- 87
2019-04-01 08:00:00 5.7 0 Calma 4 Norte 0 -- -- 88
2019-04-01 07:00:00 5.6 2 Noroeste 7 Noroeste 0 -- -- 86
2019-04-01 06:00:00 6 0 Calma 7 Noroeste 0 -- -- 85
2019-04-01 05:00:00 6.3 2 Noroeste 13 Noroeste 0 -- -- 83
2019-04-01 04:00:00 7.6 9 Norte 12 Norte 0 -- -- 82
2019-04-01 03:00:00 7.6 5 Norte 8 Norte 0 -- -- 79
2019-04-01 02:00:00 8.8 0 Calma 6 Noroeste 0 -- -- 77
2019-04-01 01:00:00 9 3 Noroeste 9 Noroeste 0 -- -- 72
2019-04-01 00:00:00 10.4 4 Noroeste 7 Noroeste 0 -- -- 70
2019-03-31 23:00:00 11.3 0 Calma 7 Sudoeste 0 -- -- 65
2019-03-31 22:00:00 12.3 6 Sudoeste 18 Sur 0 -- -- 61
2019-03-31 21:00:00 13.1 11 Sur 22 Sur 0 -- -- 60
2019-03-31 20:00:00 14.2 15 Sur 26 Sur 0 -- -- 59
2019-03-31 19:00:00 16.4 15 Sur 24 Sur 0 -- -- 54
2019-03-31 18:00:00 17.2 9 Sur 14 Sur 0 -- -- 49
2019-03-31 17:00:00 18.4 2 Norte 11 Sudoeste 0 -- -- 49
2019-03-31 16:00:00 16.5 5 Sudeste 12 Sur 0 -- -- 55
2019-03-31 15:00:00 15.7 5 Sur 10 Sudoeste 0 -- -- 60
2019-03-31 14:00:00 14.7 5 Sudoeste 12 Sudeste 0 -- -- 60
2019-03-31 13:00:00 13.8 9 Sur 14 Sur 0 -- -- 61
2019-03-31 12:00:00 13.2 9 Norte 14 Nordeste 0 -- -- 64
2019-03-31 11:00:00 11.3 8 Norte 14 Norte 0 -- -- 69
2019-03-31 10:00:00 6 6 Noroeste 10 Noroeste 0 -- -- 86
2019-03-31 09:00:00 2.6 3 Norte 7 Norte 0 -- -- 97
2019-03-31 08:00:00 -0.2 3 Oeste 8 Noroeste 0 -- -- 97
2019-03-31 07:00:00 0.8 3 Noroeste 9 Noroeste 0 -- -- 97
2019-03-31 06:00:00 0.6 8 Norte 12 Norte 0 -- -- 94
2019-03-31 05:00:00 1.8 0 Calma 9 Noroeste 0 -- -- 94
2019-03-31 03:00:00 4.5 0 Calma 4 Sur 0 -- -- 90
2019-03-31 01:00:00 5.6 2 Norte 8 Norte 0 -- -- 89
2019-03-31 00:00:00 6.1 5 Norte 8 Noroeste 0 -- -- 86
2019-03-30 23:00:00 6.5 6 Noroeste 10 Noroeste 0 -- -- 83
2019-03-30 22:00:00 8.4 0 Calma 8 Sudoeste 0 -- -- 79
2019-03-30 21:00:00 9.7 8 Sur 18 Sur 0 -- -- 76
2019-03-30 20:00:00 10.8 12 Sur 22 Sur 0 -- -- 71
2019-03-30 19:00:00 12.5 16 Sur 26 Sur 0 -- -- 63
2019-03-30 18:00:00 15.1 15 Sur 32 Sudoeste 0 -- -- 53
2019-03-30 17:00:00 16.8 16 Sur 27 Sur 0 -- -- 46
2019-03-30 16:00:00 17.6 13 Sur 23 Sudeste 0 -- -- 42
2019-03-30 15:00:00 17.7 10 Sur 23 Sur 0 -- -- 41
2019-03-30 14:00:00 16.9 8 Sur 28 Sur 0 -- -- 45
2019-03-30 13:00:00 15.8 11 Sur 23 Sur 0 -- -- 48
2019-03-30 12:00:00 15 10 Sur 20 Sudeste 0 -- -- 48
2019-03-30 11:00:00 13.1 5 Sudeste 13 Sur 0 -- -- 54
2019-03-30 10:00:00 10.3 4 Este 8 Nordeste 0 -- -- 64
2019-03-30 09:00:00 5.6 3 Este 8 Este 0 -- -- 77
2019-03-30 08:00:00 0.3 0 Calma 4 Norte 0 -- -- 95
2019-03-30 07:00:00 -1.8 0 Calma 4 Noroeste 0 -- -- 95
2019-03-30 06:00:00 -2 3 Norte 6 Norte 0 -- -- 94
2019-03-30 05:00:00 -1.3 3 Norte 5 Norte 0 -- -- 94
2019-03-30 04:00:00 -0.3 4 Norte 8 Norte 0 -- -- 94
2019-03-30 03:00:00 0 3 Noroeste 6 Norte 0 -- -- 88
2019-03-30 02:00:00 1.3 5 Noroeste 6 Norte 0 -- -- 90
2019-03-30 01:00:00 1.7 0 Calma 6 Norte 0 -- -- 87
2019-03-30 00:00:00 2.8 3 Noroeste 6 Noroeste 0 -- -- 82
2019-03-29 23:00:00 4.5 4 Norte 9 Norte 0 -- -- 77
2019-03-29 22:00:00 6.4 5 Oeste 10 Norte 0 -- -- 72
2019-03-29 21:00:00 9.8 3 Sudoeste 14 Sur 0 -- -- 60
2019-03-29 20:00:00 11.2 7 Sur 20 Sur 0 -- -- 56
2019-03-29 19:00:00 13 13 Sur 24 Sur 0 -- -- 50
2019-03-29 18:00:00 15.1 17 Sur 28 Sur 0 -- -- 40
2019-03-29 17:00:00 16.4 15 Sur 24 Sur 0 -- -- 36
2019-03-29 16:00:00 16.4 14 Sur 29 Sudeste 0 -- -- 38
2019-03-29 15:00:00 17 14 Sur 25 Sur 0 -- -- 39
2019-03-29 14:00:00 16.2 11 Sur 29 Sur 0 -- -- 43
2019-03-29 13:00:00 17.5 13 Sudeste 28 Sur 0 -- -- 40
2019-03-29 12:00:00 16.7 10 Sur 18 Sur 0 -- -- 43
2019-03-29 11:00:00 14.6 5 Sudeste 10 Sudeste 0 -- -- 49
2019-03-29 10:00:00 11.2 5 Sur 8 Sudeste 0 -- -- 60
2019-03-29 09:00:00 7.3 4 Nordeste 7 Norte 0 -- -- 74
2019-03-29 08:00:00 2.5 5 Norte 8 Norte 0 -- -- 93
2019-03-29 07:00:00 0.8 0 Calma 4 Norte 0 -- -- 92
2019-03-29 06:00:00 1.5 2 Nordeste 6 Norte 0 -- -- 94
2019-03-29 05:00:00 1.8 0 Calma 8 Noroeste 0 -- -- 88
2019-03-29 04:00:00 2.2 0 Calma 7 Noroeste 0 -- -- 90
2019-03-29 03:00:00 3.2 3 Noroeste 5 Norte 0 -- -- 89
2019-03-29 02:00:00 4.1 0 Calma 12 Noroeste 0 -- -- 84
2019-03-29 01:00:00 2.8 7 Norte 9 Norte 0 -- -- 89
2019-03-29 00:00:00 4 0 Calma 10 Norte 0 -- -- 81
2019-03-28 23:00:00 5.8 5 Noroeste 12 Norte 0 -- -- 79
2019-03-28 22:00:00 7.2 6 Norte 13 Sudoeste 0 -- -- 74
2019-03-28 21:00:00 10.1 3 Sur 14 Sur 0 -- -- 67
2019-03-28 20:00:00 11.1 8 Sudeste 24 Sur 0 -- -- 63
2019-03-28 19:00:00 13 21 Sur 32 Sur 0 -- -- 49
2019-03-28 18:00:00 15 23 Sur 35 Sur 0 -- -- 41
2019-03-28 17:00:00 17 22 Sur 35 Sur 0 -- -- 36
2019-03-28 16:00:00 19 8 Sur 26 Sudeste 0 -- -- 32
2019-03-28 15:00:00 18.3 11 Sudeste 26 Sudeste 0 -- -- 34
2019-03-28 14:00:00 18.2 7 Sudoeste 22 Sur 0 -- -- 36
2019-03-28 13:00:00 17 10 Sur 23 Sur 0 -- -- 37
2019-03-28 12:00:00 15.4 14 Sudeste 22 Sudeste 0 -- -- 40
2019-03-28 11:00:00 13.3 7 Sudeste 13 Sur 0 -- -- 50
2019-03-28 10:00:00 9.4 5 Sur 10 Sudeste 0 -- -- 60
2019-03-28 09:00:00 5.6 4 Este 6 Este 0 -- -- 74
2019-03-28 08:00:00 1.6 2 Este 7 Norte 0 -- -- 91
2019-03-28 07:00:00 -0.9 5 Norte 8 Norte 0 -- -- 96
2019-03-28 06:00:00 -0.7 2 Noroeste 5 Noroeste 0 -- -- 95
2019-03-28 05:00:00 -0.4 2 Noroeste 11 Norte 0 -- -- 95
2019-03-28 04:00:00 0.1 2 Nordeste 6 Norte 0 -- -- 93
2019-03-28 03:00:00 1 0 Calma 6 Noroeste 0 -- -- 90
2019-03-28 02:00:00 1.8 0 Calma 9 Noroeste 0 -- -- 91
2019-03-28 01:00:00 2.5 4 Norte 8 Noroeste 0 -- -- 88
2019-03-28 00:00:00 3.6 2 Noroeste 8 Norte 0 -- -- 87
2019-03-27 23:00:00 5.2 7 Norte 10 Norte 0 -- -- 79
2019-03-27 22:00:00 7.1 6 Noroeste 9 Noroeste 0 -- -- 73
2019-03-27 21:00:00 9 5 Norte 13 Sudoeste 0 -- -- 64
2019-03-27 20:00:00 11.3 5 Sur 20 Sudeste 0 -- -- 56
2019-03-27 19:00:00 13.2 10 Sur 31 Sur 0 -- -- 51
2019-03-27 18:00:00 15 23 Sur 35 Sur 0 -- -- 46
2019-03-27 17:00:00 17.9 20 Sur 32 Sur 0 -- -- 38
2019-03-27 16:00:00 19.3 10 Sudoeste 21 Sudoeste 0 -- -- 27
2019-03-27 15:00:00 19 10 Sur 21 Sudeste 0 -- -- 28
2019-03-27 14:00:00 18 10 Sudeste 23 Sur 0 -- -- 26
2019-03-27 13:00:00 17.1 13 Sur 23 Sur 0 -- -- 26
2019-03-27 12:00:00 15.1 10 Sur 18 Sur 0 -- -- 43
2019-03-27 11:00:00 12.6 10 Sur 16 Sur 0 -- -- 49
2019-03-27 10:00:00 8.7 5 Sur 8 Sur 0 -- -- 52
2019-03-27 09:00:00 3.9 3 Nordeste 6 Este 0 -- -- 70
2019-03-27 08:00:00 -0.8 3 Norte 6 Noroeste 0 -- -- 93
2019-03-27 07:00:00 -2.7 3 Norte 4 Norte 0 -- -- 94
2019-03-27 06:00:00 -2.1 4 Noroeste 6 Noroeste 0 -- -- 96
2019-03-27 05:00:00 -2.3 4 Noroeste 8 Noroeste 0 -- -- 94
2019-03-27 04:00:00 -1.8 6 Norte 8 Norte 0 -- -- 90
2019-03-27 03:00:00 -1.1 5 Norte 9 Noroeste 0 -- -- 90
2019-03-27 02:00:00 0.1 3 Noroeste 8 Norte 0 -- -- 86
2019-03-27 01:00:00 0.8 4 Norte 14 Noroeste 0 -- -- 85
2019-03-27 00:00:00 2.3 3 Norte 13 Noroeste 0 -- -- 79